aviador You're here:

KHSI Decoded Metar

HASTINGS in NE, USA
Report Time2017-05-23 13:53:00
UTC Time2017-05-23 14:40:32
Flight Rules vfr VFR
Wind290° at 11 kt
W.Decomp.*RWY 32: 8.8 kt HW 6.6 kt LCW
RWY 22: 5.0 kt HW 9.8 kt RCW
W.Rank290° ranks 19
Current wind is above 290° avg. (8.5)
Visibility9999 m
Phenomena:N/A
Clouds:Overcast 100 Hf
Expected CloudBase > 1,200 ft AGL from Temp-Dew spread
Ceiling10,000 ft
Temp10°C (ISA -1)
Dew Point07°C (82% RH)
AAT5.4°C
QNH1015 hPa
Density Alt1,877 ft
Elevation1,939 ft
Report Wrong Elevation
Raw Report
METAR KHSI 231353Z AUTO 29011KT 10SM OVC100 10/07 A2998 RMK AO2 SLP149
T01000072=

Extra information for KHSI:More info

Metar Taf Metar & Taf Last 4 Metars F.Rules Stats Wind Profile Meteogram Temp Stats Airport Information Weather charts Add Link Nearby VenuesMetar ALERT Operation Metar Decoded Social comments

AIRNAV info for KHSI